createdAt,value
2018-12-31T00:00:47.650Z,19.20
2018-12-31T00:01:27.994Z,11.73
2018-12-31T00:02:06.812Z,20.80
2018-12-31T00:02:41.947Z,15.40
2018-12-31T00:03:15.536Z,25.50
2018-12-31T00:03:51.059Z,18.52
2018-12-31T00:04:24.430Z,19.20
2018-12-31T00:04:58.123Z,21.80
2018-12-31T00:05:31.653Z,28.65
2018-12-31T00:06:05.279Z,15.40
2018-12-31T00:06:58.173Z,18.00
2018-12-31T00:07:31.794Z,22.42
2018-12-31T00:08:05.411Z,16.73
2018-12-31T00:08:39.022Z,15.08
2018-12-31T00:09:12.629Z,17.00
2018-12-31T00:09:46.158Z,22.62
2018-12-31T00:10:19.675Z,15.48
2018-12-31T00:10:53.258Z,18.80
2018-12-31T00:11:27.688Z,17.90
2018-12-31T00:12:01.277Z,18.98
2018-12-31T00:12:34.808Z,16.10
2018-12-31T00:13:08.297Z,16.95
2018-12-31T00:13:41.830Z,19.87
2018-12-31T00:14:15.342Z,14.80
2018-12-31T00:14:49.318Z,22.20
2018-12-31T00:15:22.844Z,18.45
2018-12-31T00:15:56.451Z,21.35
2018-12-31T00:16:29.948Z,18.92
2018-12-31T00:17:03.571Z,15.43
2018-12-31T00:17:37.189Z,20.15
2018-12-31T00:18:10.694Z,24.15
2018-12-31T00:18:44.196Z,20.48
2018-12-31T00:19:17.969Z,15.70
2018-12-31T00:19:56.866Z,12.47
2018-12-31T00:20:30.339Z,15.93
2018-12-31T00:21:03.839Z,18.32
2018-12-31T00:21:37.322Z,12.45
2018-12-31T00:22:11.048Z,18.23
2018-12-31T00:22:44.502Z,25.20
2018-12-31T00:23:17.918Z,12.28
2018-12-31T00:24:10.530Z,18.92
2018-12-31T00:24:44.065Z,20.17
2018-12-31T00:25:17.566Z,19.23
2018-12-31T00:25:51.112Z,16.05
2018-12-31T00:26:24.538Z,16.17
2018-12-31T00:26:58.028Z,21.73
2018-12-31T00:27:31.539Z,20.40
2018-12-31T00:28:05.049Z,22.17
2018-12-31T00:28:38.478Z,19.82
2018-12-31T00:29:12.066Z,17.80
2018-12-31T00:29:45.570Z,23.83
2018-12-31T00:30:19.070Z,20.48
2018-12-31T00:30:52.557Z,24.98
2018-12-31T00:31:26.060Z,16.80
2018-12-31T00:31:59.571Z,20.15
2018-12-31T00:32:33.055Z,19.02
2018-12-31T00:33:06.467Z,13.72
2018-12-31T00:33:39.960Z,22.40
2018-12-31T00:34:13.420Z,20.82
2018-12-31T00:34:46.913Z,16.65
2018-12-31T00:35:20.440Z,20.10
2018-12-31T00:35:53.933Z,12.43
2018-12-31T00:36:27.424Z,23.55
2018-12-31T00:37:00.935Z,14.98
2018-12-31T00:37:34.448Z,18.80
2018-12-31T00:38:07.933Z,15.35
2018-12-31T00:38:41.415Z,20.12
2018-12-31T00:39:14.851Z,16.50
2018-12-31T00:39:48.287Z,22.60
2018-12-31T00:40:21.784Z,11.65
2018-12-31T00:40:55.374Z,15.25
2018-12-31T00:41:28.866Z,19.37
2018-12-31T00:42:02.350Z,28.62
2018-12-31T00:42:35.834Z,18.67
2018-12-31T00:43:09.389Z,16.00
2018-12-31T00:43:42.868Z,19.37
2018-12-31T00:44:16.373Z,22.67
2018-12-31T00:45:08.958Z,13.85
2018-12-31T00:45:42.505Z,28.30
2018-12-31T00:46:16.016Z,13.83
2018-12-31T00:46:49.572Z,19.12
2018-12-31T00:47:23.204Z,11.80
2018-12-31T00:47:56.734Z,23.70
2018-12-31T00:48:30.221Z,19.75
2018-12-31T00:49:03.716Z,23.90
2018-12-31T00:49:37.244Z,15.58
2018-12-31T00:50:10.755Z,18.57
2018-12-31T00:50:44.253Z,8.83
2018-12-31T00:51:17.768Z,22.10
2018-12-31T00:51:51.284Z,18.67
2018-12-31T00:52:24.795Z,16.10
2018-12-31T00:52:58.301Z,15.13
2018-12-31T00:53:31.775Z,15.75
2018-12-31T00:54:05.200Z,16.45
2018-12-31T00:54:38.679Z,14.83
2018-12-31T00:55:12.205Z,28.02
2018-12-31T00:55:45.794Z,15.55
2018-12-31T00:56:19.292Z,16.95
2018-12-31T00:56:52.817Z,17.48
2018-12-31T00:57:26.243Z,24.95
2018-12-31T00:57:59.761Z,18.42
2018-12-31T00:58:33.258Z,27.77
2018-12-31T00:59:06.757Z,19.25
2018-12-31T00:59:40.318Z,14.58
2018-12-31T01:00:14.044Z,19.70
2018-12-31T01:00:47.469Z,16.95
2018-12-31T01:01:20.954Z,21.90
2018-12-31T01:01:54.479Z,22.90
2018-12-31T01:02:28.100Z,14.40
2018-12-31T01:03:01.593Z,15.10
2018-12-31T01:03:35.080Z,23.15
2018-12-31T01:04:10.555Z,14.00
2018-12-31T01:04:44.050Z,21.45
2018-12-31T01:05:17.573Z,17.27
2018-12-31T01:05:51.044Z,19.32
2018-12-31T01:06:24.551Z,13.58
2018-12-31T01:06:58.047Z,18.48
2018-12-31T01:07:31.512Z,21.90
2018-12-31T01:08:06.407Z,13.48
2018-12-31T01:08:39.903Z,14.20
2018-12-31T01:09:13.413Z,22.30
2018-12-31T01:09:47.115Z,22.52
2018-12-31T01:10:20.627Z,19.98
2018-12-31T01:10:54.136Z,21.27
2018-12-31T01:11:27.569Z,17.82
2018-12-31T01:12:01.109Z,22.98
2018-12-31T01:12:34.625Z,24.20
2018-12-31T01:13:10.921Z,23.27
2018-12-31T01:13:44.457Z,27.65
2018-12-31T01:14:17.960Z,21.50
2018-12-31T01:14:51.471Z,28.90
2018-12-31T01:15:24.961Z,14.90
2018-12-31T01:15:58.440Z,18.17
2018-12-31T01:16:31.968Z,25.82
2018-12-31T01:17:05.485Z,24.80
2018-12-31T01:17:39.113Z,27.25
2018-12-31T01:18:15.410Z,28.27
2018-12-31T01:19:08.048Z,22.15
2018-12-31T01:19:41.681Z,19.98
2018-12-31T01:20:15.124Z,19.85
2018-12-31T01:20:48.793Z,24.20
2018-12-31T01:21:22.376Z,22.90
2018-12-31T01:21:55.893Z,31.60
2018-12-31T01:22:29.334Z,26.60
2018-12-31T01:23:02.937Z,36.45
2018-12-31T01:23:36.438Z,23.30
2018-12-31T01:24:09.966Z,20.95
2018-12-31T01:24:43.397Z,28.62
2018-12-31T01:25:16.995Z,24.45
2018-12-31T01:25:50.545Z,29.55
2018-12-31T01:26:24.035Z,29.07
2018-12-31T01:26:57.537Z,27.58
2018-12-31T01:27:31.008Z,33.08
2018-12-31T01:28:04.701Z,31.37
2018-12-31T01:28:38.194Z,25.60
2018-12-31T01:29:11.639Z,31.55
2018-12-31T01:29:45.162Z,24.60
2018-12-31T01:30:18.690Z,23.22
2018-12-31T01:30:52.339Z,36.20
2018-12-31T01:31:25.823Z,37.42
2018-12-31T01:31:59.311Z,29.23
2018-12-31T01:32:32.726Z,33.35
2018-12-31T01:33:06.235Z,31.35
2018-12-31T01:33:39.731Z,32.98
2018-12-31T01:34:13.782Z,48.35
2018-12-31T01:34:47.311Z,31.60
2018-12-31T01:35:20.837Z,33.90
2018-12-31T01:35:54.274Z,38.25
2018-12-31T01:36:27.766Z,40.78
2018-12-31T01:37:01.296Z,34.63
2018-12-31T01:37:34.800Z,44.00
2018-12-31T01:38:08.297Z,29.18
2018-12-31T01:38:41.756Z,27.52
2018-12-31T01:39:15.317Z,36.90
2018-12-31T01:39:49.020Z,36.90
2018-12-31T01:40:22.504Z,39.10
2018-12-31T01:40:56.122Z,33.50
2018-12-31T01:41:29.540Z,35.10
2018-12-31T01:42:03.065Z,38.78
2018-12-31T01:42:36.567Z,35.33
2018-12-31T01:43:10.078Z,48.65
2018-12-31T01:43:43.566Z,36.35
2018-12-31T01:44:17.049Z,34.95
2018-12-31T01:44:50.578Z,34.50
2018-12-31T01:45:24.093Z,40.98
2018-12-31T01:45:57.666Z,29.48
2018-12-31T01:46:31.255Z,37.65
2018-12-31T01:47:04.829Z,38.75
2018-12-31T01:47:38.415Z,39.13
2018-12-31T01:48:11.902Z,43.00
2018-12-31T01:48:45.396Z,35.85
2018-12-31T01:49:18.813Z,38.60
2018-12-31T01:50:11.433Z,46.63
2018-12-31T01:50:44.994Z,43.05
2018-12-31T01:51:18.408Z,41.95
2018-12-31T01:51:51.932Z,29.77
2018-12-31T01:52:25.545Z,35.70
2018-12-31T01:52:59.045Z,40.00
2018-12-31T01:53:32.456Z,35.28
2018-12-31T01:54:05.975Z,34.58
2018-12-31T01:54:39.488Z,27.30
2018-12-31T01:55:13.072Z,50.55
2018-12-31T01:55:46.535Z,40.45
2018-12-31T01:56:20.045Z,56.75
2018-12-31T01:56:53.542Z,36.38
2018-12-31T01:57:42.365Z,36.40
2018-12-31T01:58:15.873Z,29.27
2018-12-31T01:58:49.344Z,46.23
2018-12-31T01:59:22.761Z,44.23
2018-12-31T01:59:56.286Z,38.05
2018-12-31T02:00:31.629Z,40.98
2018-12-31T02:01:05.025Z,43.73
2018-12-31T02:01:38.576Z,34.80
2018-12-31T02:02:12.108Z,35.05
2018-12-31T02:02:45.533Z,30.77
2018-12-31T02:03:19.124Z,36.68
2018-12-31T02:03:52.549Z,41.18
2018-12-31T02:04:26.090Z,36.50
2018-12-31T02:04:59.565Z,37.33
2018-12-31T02:05:33.137Z,36.05
2018-12-31T02:06:06.546Z,36.30
2018-12-31T02:06:40.054Z,34.70
2018-12-31T02:07:13.548Z,36.73
2018-12-31T02:07:47.090Z,29.37
2018-12-31T02:08:20.614Z,40.95
2018-12-31T02:08:54.140Z,39.23
2018-12-31T02:09:27.635Z,42.43
2018-12-31T02:10:01.228Z,42.55
2018-12-31T02:10:34.813Z,34.55
2018-12-31T02:11:08.282Z,43.20
2018-12-31T02:11:41.787Z,33.83
2018-12-31T02:12:15.368Z,36.38
2018-12-31T02:12:48.923Z,29.80
2018-12-31T02:13:22.428Z,36.68
2018-12-31T02:13:55.929Z,35.10
2018-12-31T02:14:29.428Z,41.30
2018-12-31T02:15:03.006Z,26.87
2018-12-31T02:15:36.557Z,35.55
2018-12-31T02:16:10.093Z,46.98
2018-12-31T02:16:43.669Z,35.25
2018-12-31T02:17:17.230Z,35.43
2018-12-31T02:17:50.717Z,45.38
2018-12-31T02:18:24.164Z,34.50
2018-12-31T02:18:57.674Z,34.73
2018-12-31T02:19:31.170Z,42.58
2018-12-31T02:20:04.965Z,35.83
2018-12-31T02:20:38.446Z,30.77
2018-12-31T02:21:11.939Z,33.75
2018-12-31T02:21:45.376Z,36.77
2018-12-31T02:22:18.861Z,41.30
2018-12-31T02:22:52.287Z,44.93
2018-12-31T02:23:25.700Z,36.95
2018-12-31T02:23:59.267Z,41.05
2018-12-31T02:24:32.747Z,30.70
2018-12-31T02:25:06.245Z,38.95
2018-12-31T02:25:39.728Z,34.15
2018-12-31T02:26:13.747Z,42.17
2018-12-31T02:26:47.348Z,33.75
2018-12-31T02:27:20.873Z,42.93
2018-12-31T02:27:54.348Z,34.13
2018-12-31T02:28:27.853Z,51.85
2018-12-31T02:29:01.527Z,34.05
2018-12-31T02:29:35.016Z,42.38
2018-12-31T02:30:08.519Z,35.13
2018-12-31T02:30:42.018Z,38.67
2018-12-31T02:31:15.528Z,40.17
2018-12-31T02:31:49.091Z,37.88
2018-12-31T02:32:22.577Z,56.48
2018-12-31T02:32:56.365Z,37.63
2018-12-31T02:33:29.785Z,33.67
2018-12-31T02:34:03.276Z,42.55
2018-12-31T02:34:36.745Z,39.30
2018-12-31T02:35:10.253Z,48.25
2018-12-31T02:35:43.793Z,33.55
2018-12-31T02:36:17.296Z,33.18
2018-12-31T02:36:50.778Z,41.10
2018-12-31T02:37:24.273Z,31.23
2018-12-31T02:37:57.777Z,34.90
2018-12-31T02:38:31.337Z,36.63
2018-12-31T02:39:06.260Z,34.92
2018-12-31T02:39:39.770Z,40.83
2018-12-31T02:40:13.254Z,34.90
2018-12-31T02:40:46.797Z,38.63
2018-12-31T02:41:20.372Z,29.05
2018-12-31T02:41:53.889Z,34.90
2018-12-31T02:42:27.397Z,45.58
2018-12-31T02:43:00.893Z,41.75
2018-12-31T02:43:34.427Z,41.63
2018-12-31T02:44:07.965Z,41.58
2018-12-31T02:44:41.679Z,34.35
2018-12-31T02:45:15.178Z,43.50
2018-12-31T02:45:48.671Z,36.08
2018-12-31T02:46:22.276Z,50.65
2018-12-31T02:46:55.834Z,29.57
2018-12-31T02:47:29.321Z,25.88
2018-12-31T02:48:02.909Z,35.23
2018-12-31T02:48:36.407Z,31.42
2018-12-31T02:49:09.946Z,32.67
2018-12-31T02:49:43.485Z,32.58
2018-12-31T02:50:16.956Z,38.80
2018-12-31T02:50:50.499Z,41.05
2018-12-31T02:51:24.050Z,40.63
2018-12-31T02:51:57.567Z,39.65
2018-12-31T02:52:31.067Z,52.03
2018-12-31T02:53:04.787Z,33.88
2018-12-31T02:53:38.268Z,48.40
2018-12-31T02:54:11.693Z,43.15
2018-12-31T02:54:45.186Z,45.48
2018-12-31T02:55:18.598Z,39.73
2018-12-31T02:55:52.124Z,45.00
2018-12-31T02:56:25.598Z,31.05
2018-12-31T02:56:59.093Z,31.65
2018-12-31T02:57:32.585Z,28.92
2018-12-31T02:58:06.013Z,34.58
2018-12-31T02:58:39.697Z,38.55
2018-12-31T02:59:13.197Z,38.70
2018-12-31T02:59:46.870Z,30.20
2018-12-31T03:00:20.551Z,36.70
2018-12-31T03:00:54.041Z,34.50
2018-12-31T03:01:27.657Z,36.60
2018-12-31T03:02:01.150Z,37.93
2018-12-31T03:02:34.688Z,34.20
2018-12-31T03:03:08.248Z,34.65
2018-12-31T03:03:41.748Z,39.88
2018-12-31T03:04:15.263Z,31.35
2018-12-31T03:04:48.769Z,28.05
2018-12-31T03:05:22.295Z,31.33
2018-12-31T03:05:55.853Z,29.72
2018-12-31T03:06:29.351Z,41.92
2018-12-31T03:07:02.852Z,32.08
2018-12-31T03:07:36.297Z,38.45
2018-12-31T03:08:09.813Z,29.82
2018-12-31T03:08:43.264Z,31.10
2018-12-31T03:09:35.944Z,33.02
2018-12-31T03:10:09.522Z,40.48
2018-12-31T03:10:43.085Z,45.28
2018-12-31T03:11:16.573Z,34.63
2018-12-31T03:11:50.054Z,36.70
2018-12-31T03:12:23.470Z,31.33
2018-12-31T03:12:56.960Z,38.58
2018-12-31T03:13:30.458Z,33.10
2018-12-31T03:14:04.235Z,28.15
2018-12-31T03:14:37.724Z,31.62
2018-12-31T03:15:11.386Z,28.25
2018-12-31T03:15:44.890Z,23.45
2018-12-31T03:16:18.423Z,30.23
2018-12-31T03:16:52.019Z,30.77
2018-12-31T03:17:25.551Z,29.12
2018-12-31T03:17:59.067Z,37.25
2018-12-31T03:18:32.579Z,25.23
2018-12-31T03:19:06.073Z,31.45
2018-12-31T03:19:39.635Z,33.42
2018-12-31T03:20:13.132Z,35.78
2018-12-31T03:20:46.665Z,26.90
2018-12-31T03:21:20.181Z,33.95
2018-12-31T03:21:53.664Z,26.57
2018-12-31T03:22:27.151Z,31.97
2018-12-31T03:23:19.850Z,33.50
2018-12-31T03:23:53.284Z,28.95
2018-12-31T03:24:26.781Z,29.27
2018-12-31T03:25:00.285Z,30.68
2018-12-31T03:25:33.820Z,32.17
2018-12-31T03:26:07.416Z,38.15
2018-12-31T03:26:40.957Z,26.82
2018-12-31T03:27:14.458Z,32.28
2018-12-31T03:27:47.945Z,26.05
2018-12-31T03:28:21.529Z,32.75
2018-12-31T03:28:55.038Z,29.85
2018-12-31T03:29:28.552Z,31.85
2018-12-31T03:30:02.241Z,23.10
2018-12-31T03:30:35.755Z,32.03
2018-12-31T03:31:09.235Z,26.80
2018-12-31T03:31:42.717Z,35.92
2018-12-31T03:32:16.286Z,24.20
2018-12-31T03:32:49.914Z,21.02
2018-12-31T03:33:23.505Z,40.30
2018-12-31T03:33:57.170Z,28.87
2018-12-31T03:34:30.690Z,28.42
2018-12-31T03:35:04.451Z,24.23
2018-12-31T03:35:37.916Z,28.98
2018-12-31T03:36:12.600Z,30.85
2018-12-31T03:36:46.040Z,29.82
2018-12-31T03:37:19.613Z,30.12
2018-12-31T03:37:53.003Z,29.02
2018-12-31T03:38:45.676Z,29.45
2018-12-31T03:39:19.180Z,26.05
2018-12-31T03:39:52.705Z,25.12
2018-12-31T03:40:26.188Z,25.82
2018-12-31T03:40:59.800Z,34.88
2018-12-31T03:41:33.293Z,26.02
2018-12-31T03:42:07.122Z,35.17
2018-12-31T03:42:40.801Z,38.15
2018-12-31T03:43:14.292Z,34.18
2018-12-31T03:43:47.843Z,32.35
2018-12-31T03:44:21.537Z,32.13
2018-12-31T03:44:55.153Z,33.80
2018-12-31T03:45:28.639Z,39.58
2018-12-31T03:46:02.130Z,25.65
2018-12-31T03:46:35.702Z,41.45
2018-12-31T03:47:09.325Z,30.20
2018-12-31T03:47:42.824Z,32.25
2018-12-31T03:48:16.493Z,42.98
2018-12-31T03:48:49.974Z,37.63
2018-12-31T03:49:23.461Z,42.17
2018-12-31T03:49:57.089Z,36.25
2018-12-31T03:50:30.572Z,37.85
2018-12-31T03:51:04.049Z,35.52
2018-12-31T03:51:37.534Z,42.73
2018-12-31T03:52:11.000Z,39.55
2018-12-31T03:52:45.240Z,27.82
2018-12-31T03:53:18.738Z,36.75
2018-12-31T03:53:52.142Z,31.50
2018-12-31T03:54:25.657Z,33.85
2018-12-31T03:54:59.069Z,27.75
2018-12-31T03:55:32.547Z,37.80
2018-12-31T03:56:06.028Z,31.87
2018-12-31T03:56:39.524Z,38.88
2018-12-31T03:57:13.034Z,43.48
2018-12-31T03:57:46.527Z,36.33
2018-12-31T03:58:20.028Z,35.13
2018-12-31T03:58:53.542Z,30.32
2018-12-31T03:59:27.021Z,40.45
2018-12-31T04:00:00.527Z,31.23
2018-12-31T04:00:33.993Z,30.37
2018-12-31T04:01:07.478Z,35.52
2018-12-31T04:01:41.097Z,35.70
2018-12-31T04:02:14.569Z,38.67
2018-12-31T04:02:48.073Z,41.83
2018-12-31T04:03:21.669Z,33.60
2018-12-31T04:03:55.324Z,28.77
2018-12-31T04:04:28.877Z,35.25
2018-12-31T04:05:02.318Z,25.92
2018-12-31T04:05:35.832Z,32.85
2018-12-31T04:06:09.358Z,43.85
2018-12-31T04:06:42.853Z,34.63
2018-12-31T04:07:16.362Z,33.02
2018-12-31T04:07:53.071Z,44.38
2018-12-31T04:08:25.049Z,35.60
2018-12-31T04:08:58.521Z,35.17
2018-12-31T04:09:32.023Z,37.42
2018-12-31T04:10:05.613Z,36.20
2018-12-31T04:10:39.130Z,35.90
2018-12-31T04:11:12.622Z,46.95
2018-12-31T04:11:46.175Z,35.03
2018-12-31T04:12:19.709Z,38.10
2018-12-31T04:12:53.193Z,45.98
2018-12-31T04:13:26.678Z,33.80
2018-12-31T04:14:00.154Z,52.78
2018-12-31T04:14:33.668Z,46.05
2018-12-31T04:15:07.159Z,44.75
2018-12-31T04:15:40.698Z,46.08
2018-12-31T04:16:14.213Z,44.00
2018-12-31T04:16:47.721Z,45.28
2018-12-31T04:17:21.177Z,44.33
2018-12-31T04:17:55.306Z,52.05
2018-12-31T04:18:28.795Z,35.52
2018-12-31T04:19:02.282Z,44.42
2018-12-31T04:19:35.772Z,49.38
2018-12-31T04:20:09.353Z,45.60
2018-12-31T04:20:42.900Z,54.77
2018-12-31T04:21:16.395Z,42.58
2018-12-31T04:21:49.883Z,59.58
2018-12-31T04:22:23.309Z,48.73
2018-12-31T04:22:57.141Z,34.70
2018-12-31T04:23:30.627Z,71.40
2018-12-31T04:24:04.105Z,34.25
2018-12-31T04:24:37.657Z,44.65
2018-12-31T04:25:11.172Z,56.70
2018-12-31T04:25:44.584Z,42.15
2018-12-31T04:26:18.070Z,37.58
2018-12-31T04:26:51.548Z,42.03
2018-12-31T04:27:25.063Z,63.02
2018-12-31T04:27:58.585Z,38.98
2018-12-31T04:28:32.064Z,46.23
2018-12-31T04:29:05.566Z,34.95
2018-12-31T04:29:39.041Z,46.30
2018-12-31T04:30:12.532Z,41.98
2018-12-31T04:30:46.005Z,47.33
2018-12-31T04:31:19.511Z,47.35
2018-12-31T04:31:53.305Z,57.20
2018-12-31T04:32:26.781Z,36.45
2018-12-31T04:33:00.187Z,44.63
2018-12-31T04:33:33.667Z,44.55
2018-12-31T04:34:07.148Z,52.38
2018-12-31T04:34:40.625Z,53.63
2018-12-31T04:35:14.099Z,30.70
2018-12-31T04:35:47.592Z,43.73
2018-12-31T04:36:21.084Z,42.33
2018-12-31T04:36:54.511Z,43.80
2018-12-31T04:37:28.005Z,36.95
2018-12-31T04:38:01.448Z,40.08
2018-12-31T04:38:34.949Z,35.15
2018-12-31T04:39:08.368Z,36.45
2018-12-31T04:39:41.813Z,39.88
2018-12-31T04:40:15.326Z,36.03
2018-12-31T04:40:48.811Z,39.53
2018-12-31T04:41:22.227Z,37.55
2018-12-31T04:41:55.796Z,37.48
2018-12-31T04:42:29.302Z,51.88
2018-12-31T04:43:02.786Z,35.73
2018-12-31T04:43:36.203Z,29.70
2018-12-31T04:44:09.593Z,33.88
2018-12-31T04:44:43.081Z,34.80
2018-12-31T04:45:16.586Z,35.65
2018-12-31T04:45:50.074Z,33.90
2018-12-31T04:46:23.627Z,36.10
2018-12-31T04:46:57.166Z,30.40
2018-12-31T04:47:30.666Z,34.80
2018-12-31T04:48:04.185Z,27.80
2018-12-31T04:48:37.801Z,49.63
2018-12-31T04:49:11.221Z,24.43
2018-12-31T04:49:44.745Z,42.13
2018-12-31T04:50:18.276Z,42.98
2018-12-31T04:50:51.801Z,39.60
2018-12-31T04:51:25.308Z,46.90
2018-12-31T04:51:58.814Z,44.33
2018-12-31T04:52:32.251Z,40.05
2018-12-31T04:53:05.824Z,35.50
2018-12-31T04:53:39.330Z,24.75
2018-12-31T04:54:12.836Z,38.50
2018-12-31T04:54:46.550Z,35.08
2018-12-31T04:55:20.036Z,37.13
2018-12-31T04:55:53.469Z,45.75
2018-12-31T04:56:26.979Z,40.98
2018-12-31T04:57:00.467Z,41.30
2018-12-31T04:57:33.992Z,38.02
2018-12-31T04:58:07.480Z,39.35
2018-12-31T04:58:40.965Z,34.35
2018-12-31T04:59:14.485Z,30.43
2018-12-31T04:59:48.139Z,28.85
2018-12-31T05:00:21.627Z,49.30
2018-12-31T05:00:55.148Z,42.70
2018-12-31T05:01:28.640Z,43.73
2018-12-31T05:02:02.126Z,34.67
2018-12-31T05:02:35.550Z,39.10
2018-12-31T05:03:09.035Z,38.88
2018-12-31T05:03:42.512Z,40.95
2018-12-31T05:04:16.018Z,35.55
2018-12-31T05:04:49.494Z,38.05
2018-12-31T05:05:23.442Z,34.40
2018-12-31T05:05:57.066Z,36.48
2018-12-31T05:06:30.588Z,38.90
2018-12-31T05:07:04.181Z,35.35
2018-12-31T05:07:37.682Z,39.45
2018-12-31T05:08:11.179Z,39.50
2018-12-31T05:08:44.698Z,41.73
2018-12-31T05:09:18.204Z,39.42
2018-12-31T05:09:51.707Z,52.50
2018-12-31T05:10:25.127Z,41.65
2018-12-31T05:10:58.616Z,41.25
2018-12-31T05:11:32.305Z,40.17
2018-12-31T05:12:05.795Z,39.38
2018-12-31T05:12:39.212Z,38.65
2018-12-31T05:13:12.700Z,36.42
2018-12-31T05:13:46.164Z,27.07
2018-12-31T05:14:19.587Z,28.07
2018-12-31T05:14:53.105Z,33.73
2018-12-31T05:15:26.761Z,32.88
2018-12-31T05:16:00.208Z,28.35
2018-12-31T05:16:33.690Z,32.13
2018-12-31T05:17:07.187Z,30.10
2018-12-31T05:17:40.675Z,30.60
2018-12-31T05:18:14.190Z,28.10
2018-12-31T05:18:47.660Z,31.23
2018-12-31T05:19:21.090Z,38.17
2018-12-31T05:19:54.666Z,39.98
2018-12-31T05:20:47.326Z,39.65
2018-12-31T05:21:20.759Z,30.45
2018-12-31T05:21:54.254Z,29.37
2018-12-31T05:22:27.775Z,24.70
2018-12-31T05:23:01.302Z,41.58
2018-12-31T05:23:34.787Z,41.20
2018-12-31T05:24:08.272Z,38.53
2018-12-31T05:24:41.773Z,49.53
2018-12-31T05:25:15.259Z,23.12
2018-12-31T05:25:48.734Z,36.70
2018-12-31T05:26:22.145Z,41.05
2018-12-31T05:26:55.714Z,30.00
2018-12-31T05:27:29.302Z,32.40
2018-12-31T05:28:03.361Z,40.55
2018-12-31T05:28:36.857Z,39.33
2018-12-31T05:29:10.256Z,30.43
2018-12-31T05:29:43.779Z,34.08
2018-12-31T05:30:17.269Z,32.73
2018-12-31T05:30:50.771Z,32.63
2018-12-31T05:31:24.270Z,39.88
2018-12-31T05:31:57.840Z,29.30
2018-12-31T05:32:31.421Z,32.20
2018-12-31T05:33:04.921Z,42.43
2018-12-31T05:33:38.417Z,35.08
2018-12-31T05:34:12.664Z,38.88
2018-12-31T05:34:46.077Z,23.80
2018-12-31T05:35:19.509Z,28.90
2018-12-31T05:35:53.014Z,31.75
2018-12-31T05:36:26.500Z,26.17
2018-12-31T05:37:00.001Z,38.70
2018-12-31T05:37:33.504Z,38.45
2018-12-31T05:38:06.937Z,33.65
2018-12-31T05:38:40.427Z,33.15
2018-12-31T05:39:13.905Z,32.05
2018-12-31T05:39:47.390Z,35.20
2018-12-31T05:40:20.896Z,43.30
2018-12-31T05:40:54.316Z,29.00
2018-12-31T05:41:27.797Z,31.68
2018-12-31T05:42:01.294Z,40.65
2018-12-31T05:42:34.857Z,46.55
2018-12-31T05:43:08.427Z,28.17
2018-12-31T05:43:42.181Z,43.48
2018-12-31T05:44:15.613Z,33.18
2018-12-31T05:44:49.187Z,32.13
2018-12-31T05:45:22.657Z,33.78
2018-12-31T05:45:56.442Z,26.02
2018-12-31T05:46:29.940Z,26.80
2018-12-31T05:47:03.418Z,34.10
2018-12-31T05:47:36.933Z,36.00
2018-12-31T05:48:10.408Z,33.30
2018-12-31T05:48:43.894Z,38.70
2018-12-31T05:49:17.303Z,31.40
2018-12-31T05:49:50.736Z,36.03
2018-12-31T05:50:24.242Z,28.50
2018-12-31T05:50:57.752Z,31.60
2018-12-31T05:51:31.229Z,47.27
2018-12-31T05:52:04.713Z,33.98
2018-12-31T05:52:38.219Z,36.35
2018-12-31T05:53:11.727Z,31.60
2018-12-31T05:53:45.248Z,45.40
2018-12-31T05:54:18.763Z,46.30
2018-12-31T05:54:52.458Z,32.53
2018-12-31T05:55:26.038Z,34.65
2018-12-31T05:55:59.543Z,27.15
2018-12-31T05:56:33.051Z,35.25
2018-12-31T05:57:06.569Z,30.65
2018-12-31T05:57:40.083Z,33.25
2018-12-31T05:58:13.642Z,28.52
2018-12-31T05:58:47.047Z,44.95
2018-12-31T05:59:20.458Z,35.40
2018-12-31T05:59:53.956Z,40.75
2018-12-31T06:00:27.432Z,34.40
2018-12-31T06:01:00.964Z,32.88
2018-12-31T06:01:34.485Z,33.18
2018-12-31T06:02:07.918Z,31.00
2018-12-31T06:02:41.682Z,51.25
2018-12-31T06:03:15.112Z,40.92
2018-12-31T06:03:48.597Z,42.90
2018-12-31T06:04:22.105Z,39.03
2018-12-31T06:04:56.182Z,40.65
2018-12-31T06:05:29.874Z,42.50
2018-12-31T06:06:03.449Z,44.42
2018-12-31T06:06:36.989Z,33.38
2018-12-31T06:07:10.507Z,40.85
2018-12-31T06:07:43.948Z,51.13
2018-12-31T06:08:17.366Z,30.92
2018-12-31T06:08:50.870Z,43.35
2018-12-31T06:09:24.345Z,34.13
2018-12-31T06:09:57.829Z,60.45
2018-12-31T06:10:31.322Z,40.05
2018-12-31T06:11:04.805Z,45.33
2018-12-31T06:11:38.286Z,31.27
2018-12-31T06:12:11.716Z,47.67
2018-12-31T06:12:45.206Z,49.42
2018-12-31T06:13:18.964Z,37.50
2018-12-31T06:13:52.648Z,31.50
2018-12-31T06:14:26.151Z,40.55
2018-12-31T06:14:59.720Z,41.88
2018-12-31T06:15:33.150Z,43.00
2018-12-31T06:16:06.632Z,42.45
2018-12-31T06:16:40.125Z,39.63
2018-12-31T06:17:13.577Z,42.35
2018-12-31T06:17:47.018Z,43.75
2018-12-31T06:18:20.502Z,28.98
2018-12-31T06:18:54.009Z,28.07
2018-12-31T06:19:27.519Z,36.00
2018-12-31T06:20:01.041Z,36.90
2018-12-31T06:20:34.533Z,35.85
2018-12-31T06:21:08.032Z,34.30
2018-12-31T06:21:41.524Z,40.88
2018-12-31T06:22:15.045Z,33.85
2018-12-31T06:22:48.586Z,41.85
2018-12-31T06:23:21.992Z,30.43
2018-12-31T06:23:55.493Z,33.65
2018-12-31T06:24:29.002Z,24.85
2018-12-31T06:25:02.550Z,32.70
2018-12-31T06:25:36.021Z,42.15
2018-12-31T06:26:09.545Z,28.20
2018-12-31T06:26:43.108Z,30.60
2018-12-31T06:27:16.649Z,30.57
2018-12-31T06:27:50.246Z,37.93
2018-12-31T06:28:23.767Z,42.62
2018-12-31T06:28:57.318Z,38.00
2018-12-31T06:29:32.340Z,35.75
2018-12-31T06:30:05.886Z,45.35
2018-12-31T06:30:39.389Z,43.15
2018-12-31T06:31:12.885Z,38.45
2018-12-31T06:31:46.524Z,54.50
2018-12-31T06:32:20.070Z,44.38
2018-12-31T06:32:54.227Z,41.92
2018-12-31T06:33:27.881Z,32.60
2018-12-31T06:34:01.420Z,37.50
2018-12-31T06:34:34.925Z,37.20
2018-12-31T06:35:09.446Z,35.25
2018-12-31T06:35:43.025Z,29.65
2018-12-31T06:36:16.556Z,42.75
2018-12-31T06:36:50.026Z,33.83
2018-12-31T06:37:23.614Z,34.83
2018-12-31T06:37:57.209Z,41.98
2018-12-31T06:38:30.690Z,35.08
2018-12-31T06:39:06.220Z,39.05
2018-12-31T06:39:39.736Z,34.15
2018-12-31T06:40:32.344Z,35.98
2018-12-31T06:41:05.942Z,36.35
2018-12-31T06:41:39.444Z,32.13
2018-12-31T06:42:12.886Z,29.12
2018-12-31T06:42:46.313Z,34.03
2018-12-31T06:43:19.804Z,37.75
2018-12-31T06:43:53.211Z,34.27
2018-12-31T06:44:26.640Z,28.38
2018-12-31T06:45:00.158Z,23.47
2018-12-31T06:45:33.658Z,34.55
2018-12-31T06:46:07.145Z,28.47
2018-12-31T06:46:40.634Z,36.17
2018-12-31T06:47:14.123Z,24.15
2018-12-31T06:47:47.541Z,30.43
2018-12-31T06:48:21.036Z,23.90
2018-12-31T06:48:54.535Z,28.27
2018-12-31T06:49:28.078Z,39.18
2018-12-31T06:50:01.513Z,37.42
2018-12-31T06:50:35.096Z,38.88
2018-12-31T06:51:08.593Z,39.00
2018-12-31T06:51:42.006Z,30.10
2018-12-31T06:52:15.511Z,24.95
2018-12-31T06:52:48.997Z,30.57
2018-12-31T06:53:22.508Z,28.38
2018-12-31T06:53:56.029Z,27.65
2018-12-31T06:54:29.496Z,29.40
2018-12-31T06:55:02.967Z,27.13
2018-12-31T06:55:36.532Z,24.52
2018-12-31T06:56:10.081Z,24.98
2018-12-31T06:56:43.573Z,32.93
2018-12-31T06:57:17.069Z,23.77
2018-12-31T06:57:50.563Z,28.23
2018-12-31T06:58:25.432Z,22.05
2018-12-31T06:58:59.150Z,26.27
2018-12-31T06:59:32.628Z,28.92
2018-12-31T07:00:06.263Z,31.12
2018-12-31T07:00:39.813Z,21.90
2018-12-31T07:01:13.355Z,26.70
2018-12-31T07:01:46.836Z,32.93
2018-12-31T07:02:20.371Z,25.12
2018-12-31T07:02:56.194Z,24.02
2018-12-31T07:03:29.673Z,27.62
2018-12-31T07:04:04.748Z,24.70
2018-12-31T07:04:38.227Z,27.15
2018-12-31T07:05:11.734Z,25.68
2018-12-31T07:05:45.223Z,30.20
2018-12-31T07:06:18.698Z,34.75
2018-12-31T07:06:52.193Z,25.50
2018-12-31T07:07:25.691Z,30.35
2018-12-31T07:07:59.211Z,23.25
2018-12-31T07:08:32.735Z,24.52
2018-12-31T07:09:06.678Z,40.88
2018-12-31T07:09:40.215Z,22.13
2018-12-31T07:10:13.806Z,33.08
2018-12-31T07:10:47.305Z,26.07
2018-12-31T07:11:20.839Z,30.80
2018-12-31T07:11:55.465Z,24.67
2018-12-31T07:12:28.963Z,30.97
2018-12-31T07:13:02.495Z,23.35
2018-12-31T07:13:36.064Z,20.32
2018-12-31T07:14:09.631Z,27.50
2018-12-31T07:14:43.040Z,26.70
2018-12-31T07:15:16.513Z,31.87
2018-12-31T07:15:49.934Z,22.82
2018-12-31T07:16:23.436Z,21.68